Data for 02/24/2014

Time Sea-Level Adjusted Pressure Absolute Pressure Temperature Relative Humidity Dew Point   
(mb) (inHg) (mb) (inHg) (C) (F) (%) (C) (F)
00:05 1014 29.94 843 24.89 -11.8 10.9 75 -15.4 4.3
00:10 1014 29.94 843 24.89 -11.7 11 80 -14.5 6
00:15 1014 29.94 843 24.89 -11.7 11 86 -13.5 7.7
00:20 1014 29.94 843 24.89 -11.8 10.7 87 -13.5 7.7
00:25 1014 29.94 843 24.89 -11.8 10.8 87 -13.6 7.6
00:30 1014 29.94 843 24.89 -11.9 10.6 87 -13.6 7.4
00:35 1014 29.94 843 24.89 -12 10.4 87 -13.8 7.2
00:40 1014 29.94 843 24.89 -12.1 10.3 88 -13.7 7.3
00:45 1014 29.94 843 24.89 -12.1 10.3 86 -14 6.8
00:50 1014 29.94 843 24.89 -12 10.4 85 -14 6.8
00:55 1014 29.94 843 24.89 -12 10.4 85 -14.1 6.7
01:00 1014 29.94 843 24.89 -12.2 10.1 85 -14.1 6.5
01:05 1014 29.94 843 24.89 -12.3 9.9 86 -14.2 6.4
01:10 1014 29.94 843 24.89 -12.3 9.8 86 -14.2 6.4
01:15 1014 29.94 843 24.89 -12.4 9.7 86 -14.2 6.4
01:20 1014 29.94 843 24.89 -12.4 9.6 86 -14.3 6.3
01:25 1014 29.94 844 24.92 -12.4 9.6 86 -14.3 6.3
01:30 1014 29.94 844 24.92 -12.5 9.5 86 -14.4 6
01:35 1014 29.94 844 24.92 -12.6 9.4 85 -14.6 5.8
01:40 1014 29.94 844 24.92 -12.6 9.4 85 -14.6 5.8
01:45 1014 29.94 844 24.92 -12.6 9.3 85 -14.6 5.7
01:50 1014 29.94 844 24.92 -12.7 9.2 85 -14.8 5.4
01:55 1014 29.94 843 24.89 -12.8 9 85 -14.8 5.3
02:00 1014 29.94 843 24.89 -12.8 8.9 84 -15 5.1
02:05 1014 29.94 843 24.89 -12.9 8.7 85 -15 5
02:10 1014 29.94 843 24.89 -12.9 8.7 84 -15.1 4.7
02:15 1014 29.94 843 24.89 -13 8.7 84 -15.1 4.7
02:20 1014 29.94 843 24.89 -13 8.7 84 -15.1 4.8
02:25 1014 29.94 843 24.89 -13 8.6 84 -15.1 4.8
02:30 1014 29.94 843 24.89 -13 8.6 83 -15.3 4.5
02:35 1014 29.94 844 24.92 -13.2 8.3 84 -15.4 4.3
02:40 1014 29.94 844 24.92 -13.1 8.3 84 -15.4 4.3
02:45 1014 29.94 844 24.92 -13.1 8.4 84 -15.3 4.4
02:50 1014 29.94 844 24.92 -13.2 8.2 84 -15.4 4.4
02:55 1015 29.97 844 24.92 -13.2 8.3 84 -15.3 4.4
03:00 1015 29.97 844 24.92 -13.2 8.3 84 -15.3 4.5
03:05 1015 29.97 844 24.92 -13.2 8.3 84 -15.3 4.4
03:10 1014 29.94 844 24.92 -13.3 8.1 84 -15.5 4.2
03:15 1015 29.97 844 24.92 -13.5 7.7 85 -15.5 4.1
03:20 1015 29.97 844 24.92 -13.4 7.8 85 -15.5 4.1
03:25 1015 29.97 844 24.92 -13.4 8 84 -15.5 4.1
03:30 1015 29.97 844 24.92 -13.4 7.9 84 -15.6 4
03:35 1015 29.97 844 24.92 -13.4 7.9 83 -15.7 3.8
03:40 1015 29.97 844 24.92 -13.5 7.8 83 -15.7 3.7
03:45 1015 29.97 844 24.92 -13.6 7.5 84 -15.8 3.6
03:50 1015 29.97 844 24.92 -13.7 7.4 84 -15.9 3.5
03:55 1015 29.97 844 24.92 -13.8 7.2 83 -16 3.2
04:00 1015 29.97 844 24.92 -14 6.9 83 -16.3 2.6
04:05 1015 29.97 844 24.92 -14.2 6.5 84 -16.4 2.6
04:10 1015 29.97 844 24.92 -14.2 6.4 84 -16.4 2.5
04:15 1015 29.97 845 24.95 -14.2 6.4 83 -16.4 2.4
04:20 1015 29.97 844 24.92 -14.2 6.4 83 -16.5 2.4
04:25 1015 29.97 845 24.95 -14.3 6.3 84 -16.5 2.3
04:30 1015 29.97 845 24.95 -14.4 6.2 83 -16.6 2.1
04:35 1015 29.97 845 24.95 -14.4 6.1 84 -16.6 2.2
04:40 1016 30 845 24.95 -14.4 6.1 83 -16.7 1.9
04:45 1016 30 845 24.95 -14.4 6.1 83 -16.7 2
04:50 1016 30 845 24.95 -14.4 6.1 83 -16.7 2
04:55 1016 30 845 24.95 -14.4 6.2 83 -16.7 2
05:00 1016 30 845 24.95 -14.4 6.2 83 -16.7 2
05:05 1016 30 845 24.95 -14.4 6.1 83 -16.7 1.9
05:10 1016 30 845 24.95 -14.5 6 83 -16.7 1.9
05:15 1016 30 845 24.95 -14.5 5.9 84 -16.7 1.9
05:20 1016 30 845 24.95 -14.7 5.6 84 -16.9 1.7
05:25 1016 30 846 24.98 -14.7 5.5 84 -16.9 1.6
05:30 1016 30 845 24.95 -14.7 5.6 83 -17 1.5
05:35 1016 30 846 24.98 -14.8 5.3 84 -17 1.5
05:40 1016 30 846 24.98 -14.7 5.6 83 -16.9 1.5
05:45 1017 30.03 846 24.98 -14.6 5.8 83 -16.8 1.8
05:50 1017 30.03 846 24.98 -14.5 5.9 82 -16.8 1.7
05:55 1017 30.03 846 24.98 -14.5 5.9 82 -16.9 1.5
06:00 1017 30.03 846 24.98 -14.5 5.9 82 -16.9 1.5
06:05 1017 30.03 846 24.98 -14.5 6 82 -16.9 1.5
06:10 1017 30.03 846 24.98 -14.4 6.1 81 -17 1.5
06:15 1017 30.03 846 24.98 -14.3 6.2 81 -16.9 1.5
06:20 1017 30.03 846 24.98 -14.3 6.2 81 -16.9 1.5
06:25 1017 30.03 846 24.98 -14.4 6 80 -17.2 1.1
06:30 1017 30.03 847 25.01 -14.5 5.8 80 -17.2 1
06:35 1017 30.03 847 25.01 -14.5 5.8 81 -17.2 1.1
06:40 1018 30.06 847 25.01 -14.6 5.7 80 -17.3 0.9
06:45 1018 30.06 847 25.01 -14.7 5.6 80 -17.4 0.7
06:50 1018 30.06 847 25.01 -14.8 5.4 79 -17.7 0.1
06:55 1018 30.06 847 25.01 -15.1 4.9 79 -17.9 -0.2
07:00 1018 30.06 847 25.01 -15.2 4.7 81 -17.8 -0
07:05 1018 30.06 847 25.01 -15.2 4.7 81 -17.7 0.1
07:10 1018 30.06 847 25.01 -15.1 4.7 81 -17.7 0.1
07:15 1018 30.06 847 25.01 -15.2 4.7 81 -17.8 0
07:20 1018 30.06 847 25.01 -15.1 4.8 81 -17.7 0.2
07:25 1018 30.06 848 25.04 -15.1 4.8 80 -17.8 -0
07:30 1018 30.06 848 25.04 -15.1 4.9 80 -17.8 0
07:35 1019 30.09 848 25.04 -15.3 4.6 79 -18.1 -0.7
07:40 1019 30.09 848 25.04 -15.5 4.2 80 -18.2 -0.7
07:45 1019 30.09 848 25.04 -15.6 4 80 -18.2 -0.8
07:50 1019 30.09 848 25.04 -15.5 4.1 80 -18.2 -0.8
07:55 1019 30.09 848 25.04 -15.5 4.1 80 -18.2 -0.7
08:00 1019 30.09 848 25.04 -15.4 4.3 80 -18.1 -0.5
08:05 1019 30.09 848 25.04 -15.4 4.3 81 -18 -0.4
08:10 1019 30.09 848 25.04 -15.4 4.3 80 -18.1 -0.5
08:15 1019 30.09 848 25.04 -15.4 4.3 81 -18 -0.5
08:20 1019 30.09 848 25.04 -15.4 4.4 81 -17.9 -0.2
08:25 1019 30.09 848 25.04 -15.2 4.7 79 -18 -0.4
08:30 1019 30.09 849 25.07 -15.2 4.6 80 -17.9 -0.3
08:35 1020 30.12 849 25.07 -15.2 4.7 80 -17.9 -0.3
08:40 1020 30.12 849 25.07 -15.1 4.8 79 -18 -0.3
08:45 1020 30.12 849 25.07 -15.2 4.7 78 -18.2 -0.7
08:50 1020 30.12 849 25.07 -15.2 4.6 78 -18.2 -0.7
08:55 1020 30.12 849 25.07 -15.3 4.5 78 -18.3 -0.9
09:00 1020 30.12 849 25.07 -15.4 4.3 79 -18.2 -0.7
09:05 1020 30.12 849 25.07 -15.2 4.6 79 -18.1 -0.7
09:10 1020 30.12 849 25.07 -15.2 4.7 79 -18.1 -0.5
09:15 1020 30.12 849 25.07 -15.1 4.8 79 -18 -0.4
09:20 1020 30.12 849 25.07 -15.1 4.9 77 -18.2 -0.7
09:25 1021 30.15 850 25.1 -15.1 4.8 78 -18.1 -0.6
09:30 1021 30.15 850 25.1 -15.1 4.9 78 -18.1 -0.5
09:35 1021 30.15 850 25.1 -15 5.1 78 -18 -0.4
09:40 1021 30.15 850 25.1 -14.9 5.2 77 -18 -0.5
09:45 1021 30.15 850 25.1 -14.8 5.3 77 -17.9 -0.3
09:50 1021 30.15 850 25.1 -14.7 5.6 77 -17.9 -0.2
09:55 1021 30.15 850 25.1 -14.5 5.9 76 -17.8 -0.1
10:00 1021 30.15 850 25.1 -14.4 6.1 75 -17.8 -0.1
10:05 1021 30.15 850 25.1 -14.5 5.9 77 -17.7 0.2
10:10 1021 30.15 850 25.1 -14.6 5.7 75 -18.1 -0.5
10:15 1021 30.15 851 25.13 -14.6 5.7 76 -18 -0.4
10:20 1021 30.15 850 25.1 -14.5 5.9 75 -18.1 -0.5
10:25 1021 30.15 851 25.13 -14.4 6.1 74 -18 -0.4
10:30 1021 30.15 851 25.13 -14.3 6.2 74 -18 -0.4
10:35 1021 30.15 851 25.13 -14.3 6.3 75 -17.8 0
10:40 1021 30.15 851 25.13 -14.2 6.4 74 -17.9 -0.2
10:45 1021 30.15 851 25.13 -14.3 6.2 76 -17.7 0.2
10:50 1021 30.15 851 25.13 -14.2 6.5 76 -17.6 0.4
10:55 1021 30.15 850 25.1 -13.9 6.9 72 -17.9 -0.3
11:00 1021 30.15 851 25.13 -14.1 6.7 74 -17.7 0.1
11:05 1022 30.18 851 25.13 -13.9 6.9 73 -17.8 0
11:10 1022 30.18 851 25.13 -13.6 7.6 72 -17.7 0.2
11:15 1022 30.18 851 25.13 -13.4 7.8 72 -17.4 0.6
11:20 1022 30.18 851 25.13 -13.3 8.1 72 -17.2 1
11:25 1022 30.18 851 25.13 -13.2 8.2 71 -17.5 0.5
11:30 1022 30.18 851 25.13 -13.4 8 71 -17.5 0.5
11:35 1022 30.18 851 25.13 -13.4 7.9 71 -17.6 0.4
11:40 1022 30.18 851 25.13 -13.2 8.3 71 -17.5 0.6
11:45 1022 30.18 851 25.13 -13.2 8.2 70 -17.6 0.3
11:50 1022 30.18 851 25.13 -13.1 8.4 70 -17.4 0.6
11:55 1022 30.18 851 25.13 -13 8.6 71 -17.3 0.9
12:00 1022 30.18 851 25.13 -13 8.5 71 -17.2 1
12:05 1022 30.18 851 25.13 -12.9 8.8 70 -17.2 1
12:10 1022 30.18 851 25.13 -12.9 8.8 71 -17.1 1.2
12:15 1022 30.18 851 25.13 -13 8.6 70 -17.4 0.7
12:20 1022 30.18 852 25.16 -12.9 8.7 70 -17.4 0.7
12:25 1022 30.18 852 25.16 -12.7 9.2 68 -17.4 0.6
12:30 1022 30.18 851 25.13 -12.5 9.4 66 -17.6 0.4
12:35 1022 30.18 851 25.13 -13.1 8.4 71 -17.3 0.9
12:40 1022 30.18 851 25.13 -13.7 7.4 72 -17.8 0
12:45 1022 30.18 851 25.13 -13.8 7.3 73 -17.6 0.3
12:50 1022 30.18 851 25.13 -13.7 7.4 73 -17.6 0.4
12:55 1022 30.18 851 25.13 -13.5 7.7 71 -17.6 0.3
13:00 1022 30.18 852 25.16 -13.4 7.8 71 -17.7 0.2
13:05 1022 30.18 852 25.16 -13.2 8.2 71 -17.5 0.5
13:10 1022 30.18 851 25.13 -12.9 8.8 68 -17.6 0.4
13:15 1022 30.18 851 25.13 -12.6 9.3 69 -17.3 0.9
13:20 1022 30.18 851 25.13 -12.5 9.5 70 -17 1.5
13:25 1022 30.18 851 25.13 -12.1 10.2 67 -17.1 1.2
13:30 1022 30.18 851 25.13 -11.6 11.1 64 -17.1 1.3
13:35 1022 30.18 851 25.13 -11.7 11 66 -16.9 1.7
13:40 1022 30.18 851 25.13 -11.2 11.8 63 -17 1.4
13:45 1022 30.18 851 25.13 -11.7 10.9 68 -16.6 2.1
13:50 1022 30.18 851 25.13 -11.8 10.8 67 -16.7 1.9
13:55 1022 30.18 851 25.13 -12.1 10.2 68 -16.8 1.7
14:00 1022 30.18 851 25.13 -11.4 11.5 65 -16.7 2
14:05 1022 30.18 851 25.13 -11.1 11.9 64 -16.8 1.8
14:10 1022 30.18 851 25.13 -11.3 11.6 64 -16.8 1.7
14:15 1022 30.18 851 25.13 -11.7 10.9 65 -17 1.3
14:20 1022 30.18 851 25.13 -11.1 12 62 -17.1 1.3
14:25 1022 30.18 851 25.13 -12 10.5 65 -17.3 0.9
14:30 1021 30.15 851 25.13 -12 10.3 67 -16.9 1.5
14:35 1021 30.15 851 25.13 -11.4 11.5 65 -16.7 1.9
14:40 1021 30.15 851 25.13 -10.5 13.1 64 -16.1 3
14:45 1021 30.15 851 25.13 -10.6 13 62 -16.5 2.3
14:50 1021 30.15 851 25.13 -11.3 11.7 64 -16.7 1.9
14:55 1021 30.15 851 25.13 -10.5 13 60 -16.9 1.5
15:00 1021 30.15 851 25.13 -11.2 11.8 64 -16.7 1.9
15:05 1021 30.15 851 25.13 -11 12.3 67 -16 3.2
15:10 1021 30.15 851 25.13 -11.2 11.9 65 -16.5 2.3
15:15 1021 30.15 851 25.13 -10.4 13.2 60 -16.8 1.8
15:20 1021 30.15 851 25.13 -10.4 13.3 65 -15.8 3.5
15:25 1021 30.15 851 25.13 -10.3 13.5 61 -16.4 2.6
15:30 1021 30.15 851 25.13 -10.2 13.7 63 -15.9 3.4
15:35 1021 30.15 850 25.1 -10.3 13.5 63 -16.1 3.1
15:40 1021 30.15 850 25.1 -11 12.2 65 -16.4 2.4
15:45 1021 30.15 850 25.1 -11.1 12 63 -16.9 1.6
15:50 1021 30.15 850 25.1 -10.2 13.7 61 -16.3 2.7
15:55 1021 30.15 850 25.1 -9 15.8 58 -15.9 3.4
16:00 1021 30.15 850 25.1 -8.8 16.2 57 -15.9 3.4
16:05 1021 30.15 850 25.1 -10.1 13.8 64 -15.7 3.8
16:10 1021 30.15 850 25.1 -10.6 13 66 -15.7 3.8
16:15 1021 30.15 850 25.1 -11.6 11.2 69 -16.1 3
16:20 1021 30.15 850 25.1 -11.8 10.8 70 -16.3 2.7
16:25 1021 30.15 850 25.1 -11.4 11.5 70 -15.7 3.7
16:30 1021 30.15 850 25.1 -10.9 12.3 68 -15.7 3.8
16:35 1021 30.15 850 25.1 -10.8 12.5 68 -15.7 3.7
16:40 1021 30.15 850 25.1 -11.4 11.5 71 -15.7 3.8
16:45 1021 30.15 850 25.1 -11.2 11.9 68 -16 3.2
16:50 1021 30.15 850 25.1 -12 10.4 75 -15.6 4
16:55 1021 30.15 850 25.1 -12.1 10.2 71 -16.3 2.6
17:00 1021 30.15 850 25.1 -12.4 9.6 76 -15.9 3.4
17:05 1021 30.15 850 25.1 -12.3 9.8 73 -16.2 2.9
17:10 1021 30.15 850 25.1 -12.4 9.6 76 -15.8 3.5
17:15 1021 30.15 850 25.1 -12.7 9.2 76 -16.1 3.1
17:20 1021 30.15 850 25.1 -12.8 9 75 -16.3 2.7
17:25 1021 30.15 850 25.1 -12.5 9.5 75 -16 3.2
17:30 1021 30.15 850 25.1 -12.5 9.6 75 -16.1 3.1
17:35 1021 30.15 850 25.1 -12.6 9.4 76 -16 3.1
17:40 1021 30.15 850 25.1 -12.5 9.5 76 -15.8 3.5
17:45 1021 30.15 850 25.1 -12.2 10.1 74 -15.9 3.5
17:50 1021 30.15 850 25.1 -12.4 9.7 76 -15.7 3.7
17:55 1021 30.15 850 25.1 -12 10.5 75 -15.5 4.1
18:00 1021 30.15 850 25.1 -12.2 10.1 77 -15.4 4.3
18:05 1021 30.15 850 25.1 -12.1 10.2 75 -15.7 3.8
18:10 1021 30.15 850 25.1 -12.2 10 75 -15.8 3.6
18:15 1021 30.15 850 25.1 -13 8.7 78 -16.1 3.1
18:20 1021 30.15 850 25.1 -13.1 8.4 78 -16.1 3
18:25 1021 30.15 850 25.1 -13.1 8.4 78 -16.1 3
18:30 1021 30.15 850 25.1 -13.1 8.4 78 -16.1 3
18:35 1020 30.12 850 25.1 -12.9 8.7 79 -15.9 3.4
18:40 1020 30.12 850 25.1 -12.8 9 79 -15.7 3.8
18:45 1020 30.12 850 25.1 -12.7 9.1 78 -15.8 3.6
18:50 1021 30.15 850 25.1 -12.7 9.2 79 -15.6 4
18:55 1020 30.12 850 25.1 -12.4 9.7 77 -15.7 3.8
19:00 1020 30.12 849 25.07 -12.5 9.5 77 -15.8 3.6
19:05 1020 30.12 849 25.07 -12.8 8.9 78 -15.9 3.4
19:10 1020 30.12 849 25.07 -12.9 8.7 80 -15.7 3.7
19:15 1020 30.12 849 25.07 -12.5 9.5 76 -15.9 3.4
19:20 1020 30.12 849 25.07 -12.7 9.1 78 -15.7 3.7
19:25 1020 30.12 849 25.07 -12.7 9.2 78 -15.7 3.7
19:30 1020 30.12 850 25.1 -12.8 9 77 -16 3.3
19:35 1020 30.12 849 25.07 -12.7 9.1 77 -15.9 3.4
19:40 1020 30.12 849 25.07 -12.8 8.9 79 -15.8 3.6
19:45 1020 30.12 849 25.07 -12.8 9 78 -15.9 3.4
19:50 1020 30.12 849 25.07 -13 8.6 79 -15.9 3.4
19:55 1020 30.12 849 25.07 -13 8.6 79 -15.9 3.4
20:00 1020 30.12 849 25.07 -12.9 8.7 79 -15.8 3.5
20:05 1020 30.12 849 25.07 -12.9 8.7 79 -15.9 3.4
20:10 1020 30.12 849 25.07 -12.9 8.7 80 -15.7 3.8
20:15 1020 30.12 849 25.07 -12.6 9.3 78 -15.7 3.8
20:20 1020 30.12 849 25.07 -12.4 9.7 78 -15.5 4.1
20:25 1020 30.12 849 25.07 -12.4 9.7 77 -15.7 3.8
20:30 1020 30.12 849 25.07 -12.7 9.1 78 -15.8 3.6
20:35 1020 30.12 849 25.07 -12.7 9.1 78 -15.8 3.5
20:40 1020 30.12 849 25.07 -12.7 9.1 79 -15.6 3.9
20:45 1020 30.12 849 25.07 -12.7 9.2 78 -15.7 3.7
20:50 1020 30.12 849 25.07 -12.9 8.9 80 -15.6 3.9
20:55 1019 30.09 849 25.07 -12.8 8.9 80 -15.7 3.8
21:00 1020 30.12 849 25.07 -12.7 9.1 77 -15.9 3.3
21:05 1019 30.09 849 25.07 -12.8 9 78 -15.9 3.4
21:10 1019 30.09 849 25.07 -12.8 9.1 77 -16 3.3
21:15 1019 30.09 849 25.07 -12.9 8.9 77 -16 3.1
21:20 1019 30.09 849 25.07 -12.9 8.7 79 -15.9 3.5
21:25 1019 30.09 848 25.04 -12.6 9.3 77 -15.8 3.6
21:30 1019 30.09 848 25.04 -12.7 9.1 79 -15.7 3.8
21:35 1019 30.09 848 25.04 -12.7 9.2 79 -15.6 3.9
21:40 1019 30.09 848 25.04 -12.6 9.4 78 -15.6 3.8
21:45 1019 30.09 848 25.04 -12.4 9.7 78 -15.5 4.1
21:50 1019 30.09 848 25.04 -12.3 9.8 78 -15.5 4.2
21:55 1019 30.09 848 25.04 -12.4 9.7 78 -15.5 4.2
22:00 1019 30.09 848 25.04 -12.4 9.8 78 -15.4 4.2
22:05 1019 30.09 848 25.04 -12.3 9.9 78 -15.4 4.3
22:10 1019 30.09 848 25.04 -12.3 9.8 79 -15.3 4.5
22:15 1019 30.09 848 25.04 -12.5 9.5 78 -15.6 4
22:20 1019 30.09 848 25.04 -12.7 9.2 80 -15.5 4
22:25 1019 30.09 848 25.04 -12.6 9.4 79 -15.6 4
22:30 1019 30.09 848 25.04 -12.5 9.4 79 -15.5 4.2
22:35 1019 30.09 848 25.04 -12.5 9.5 80 -15.3 4.4
22:40 1019 30.09 848 25.04 -12.5 9.5 81 -15.1 4.8
22:45 1018 30.06 848 25.04 -12.7 9.2 81 -15.3 4.5
22:50 1018 30.06 848 25.04 -12.8 8.9 82 -15.3 4.4
22:55 1018 30.06 847 25.01 -12.7 9.1 82 -15.2 4.6
23:00 1018 30.06 847 25.01 -12.6 9.2 80 -15.4 4.4
23:05 1018 30.06 847 25.01 -12.8 9.1 80 -15.5 4.2
23:10 1018 30.06 847 25.01 -12.8 9 82 -15.2 4.6
23:15 1018 30.06 847 25.01 -12.5 9.6 82 -14.9 5.2
23:20 1018 30.06 847 25.01 -12.4 9.7 81 -15 4.9
23:25 1018 30.06 847 25.01 -12.6 9.3 81 -15.2 4.6
23:30 1018 30.06 847 25.01 -12.7 9.2 83 -15 5
23:35 1018 30.06 847 25.01 -12.6 9.4 82 -15.1 4.8
23:40 1018 30.06 847 25.01 -12.6 9.4 82 -15.1 4.8
23:45 1018 30.06 847 25.01 -12.6 9.4 81 -15.3 4.5
23:50 1018 30.06 847 25.01 -12.8 9 84 -15 5.1
23:55 1018 30.06 847 25.01 -12.4 9.8 81 -14.9 5.1
24:00 1018 30.06 847 25.01 -12.1 10.1 80 -14.9 5.2